sensor_id;sensor_type;location;lat;lon;timestamp;P1;durP1;ratioP1;P2;durP2;ratioP2
7110;SDS011;3597;42.650;23.386;2023-07-31T00:01:10;1.87;;;1.87;;
7110;SDS011;3597;42.650;23.386;2023-07-31T00:03:36;1.70;;;1.70;;
7110;SDS011;3597;42.650;23.386;2023-07-31T00:06:01;2.13;;;2.13;;
7110;SDS011;3597;42.650;23.386;2023-07-31T00:08:26;1.93;;;1.93;;
7110;SDS011;3597;42.650;23.386;2023-07-31T00:10:52;2.03;;;2.03;;
7110;SDS011;3597;42.650;23.386;2023-07-31T00:13:18;2.37;;;2.37;;
7110;SDS011;3597;42.650;23.386;2023-07-31T00:15:43;2.23;;;2.23;;
7110;SDS011;3597;42.650;23.386;2023-07-31T00:18:08;2.40;;;2.40;;
7110;SDS011;3597;42.650;23.386;2023-07-31T00:20:34;2.47;;;2.47;;
7110;SDS011;3597;42.650;23.386;2023-07-31T00:22:59;2.60;;;2.50;;
7110;SDS011;3597;42.650;23.386;2023-07-31T00:25:25;2.43;;;2.43;;
7110;SDS011;3597;42.650;23.386;2023-07-31T00:27:50;2.63;;;2.63;;
7110;SDS011;3597;42.650;23.386;2023-07-31T00:30:15;2.43;;;2.43;;
7110;SDS011;3597;42.650;23.386;2023-07-31T00:32:41;2.67;;;2.50;;
7110;SDS011;3597;42.650;23.386;2023-07-31T00:35:06;2.27;;;2.23;;
7110;SDS011;3597;42.650;23.386;2023-07-31T00:37:32;2.40;;;2.40;;
7110;SDS011;3597;42.650;23.386;2023-07-31T00:39:57;2.67;;;2.67;;
7110;SDS011;3597;42.650;23.386;2023-07-31T00:42:22;2.63;;;2.63;;
7110;SDS011;3597;42.650;23.386;2023-07-31T00:44:49;3.50;;;2.47;;
7110;SDS011;3597;42.650;23.386;2023-07-31T00:47:14;2.17;;;2.17;;
7110;SDS011;3597;42.650;23.386;2023-07-31T00:49:39;2.20;;;2.20;;
7110;SDS011;3597;42.650;23.386;2023-07-31T00:52:05;1.90;;;1.90;;
7110;SDS011;3597;42.650;23.386;2023-07-31T00:54:30;1.80;;;1.80;;
7110;SDS011;3597;42.650;23.386;2023-07-31T00:56:56;1.70;;;1.70;;
7110;SDS011;3597;42.650;23.386;2023-07-31T00:59:21;1.80;;;1.80;;
7110;SDS011;3597;42.650;23.386;2023-07-31T01:01:47;1.80;;;1.80;;
7110;SDS011;3597;42.650;23.386;2023-07-31T01:04:12;1.80;;;1.80;;
7110;SDS011;3597;42.650;23.386;2023-07-31T01:09:45;2.20;;;2.20;;
7110;SDS011;3597;42.650;23.386;2023-07-31T01:12:15;2.43;;;2.43;;
7110;SDS011;3597;42.650;23.386;2023-07-31T01:14:50;2.17;;;2.17;;
7110;SDS011;3597;42.650;23.386;2023-07-31T01:17:36;2.40;;;2.40;;
7110;SDS011;3597;42.650;23.386;2023-07-31T01:20:03;2.70;;;2.60;;
7110;SDS011;3597;42.650;23.386;2023-07-31T01:22:39;2.20;;;2.20;;
7110;SDS011;3597;42.650;23.386;2023-07-31T01:28:29;2.60;;;2.60;;
7110;SDS011;3597;42.650;23.386;2023-07-31T01:30:49;2.73;;;2.73;;
7110;SDS011;3597;42.650;23.386;2023-07-31T01:33:15;2.80;;;2.80;;
7110;SDS011;3597;42.650;23.386;2023-07-31T01:35:44;3.90;;;3.80;;
7110;SDS011;3597;42.650;23.386;2023-07-31T01:38:11;3.53;;;3.43;;
7110;SDS011;3597;42.650;23.386;2023-07-31T01:40:36;3.60;;;3.50;;
7110;SDS011;3597;42.650;23.386;2023-07-31T01:43:02;4.50;;;4.40;;
7110;SDS011;3597;42.650;23.386;2023-07-31T01:45:27;4.97;;;4.77;;
7110;SDS011;3597;42.650;23.386;2023-07-31T01:47:53;5.00;;;4.90;;
7110;SDS011;3597;42.650;23.386;2023-07-31T01:50:18;5.67;;;5.50;;
7110;SDS011;3597;42.650;23.386;2023-07-31T01:52:43;5.67;;;5.57;;
7110;SDS011;3597;42.650;23.386;2023-07-31T01:55:09;6.47;;;6.17;;
7110;SDS011;3597;42.650;23.386;2023-07-31T01:57:36;7.27;;;6.97;;
7110;SDS011;3597;42.650;23.386;2023-07-31T02:00:02;7.37;;;7.07;;
7110;SDS011;3597;42.650;23.386;2023-07-31T02:02:27;7.17;;;6.87;;
7110;SDS011;3597;42.650;23.386;2023-07-31T02:04:53;8.17;;;7.87;;
7110;SDS011;3597;42.650;23.386;2023-07-31T02:07:18;9.80;;;9.40;;
7110;SDS011;3597;42.650;23.386;2023-07-31T02:09:43;9.90;;;9.50;;
7110;SDS011;3597;42.650;23.386;2023-07-31T02:12:09;9.80;;;9.33;;
7110;SDS011;3597;42.650;23.386;2023-07-31T02:14:34;10.13;;;9.73;;
7110;SDS011;3597;42.650;23.386;2023-07-31T02:17:00;9.97;;;9.67;;
7110;SDS011;3597;42.650;23.386;2023-07-31T02:19:25;9.37;;;9.00;;
7110;SDS011;3597;42.650;23.386;2023-07-31T02:21:50;9.57;;;9.17;;
7110;SDS011;3597;42.650;23.386;2023-07-31T02:24:16;9.37;;;9.03;;
7110;SDS011;3597;42.650;23.386;2023-07-31T02:26:41;8.90;;;8.50;;
7110;SDS011;3597;42.650;23.386;2023-07-31T02:29:07;8.33;;;7.83;;
7110;SDS011;3597;42.650;23.386;2023-07-31T02:31:33;8.40;;;8.07;;
7110;SDS011;3597;42.650;23.386;2023-07-31T02:33:58;7.90;;;7.60;;
7110;SDS011;3597;42.650;23.386;2023-07-31T02:36:23;7.83;;;7.50;;
7110;SDS011;3597;42.650;23.386;2023-07-31T02:38:49;7.00;;;6.80;;
7110;SDS011;3597;42.650;23.386;2023-07-31T02:41:14;6.60;;;6.40;;
7110;SDS011;3597;42.650;23.386;2023-07-31T02:43:39;6.30;;;6.10;;
7110;SDS011;3597;42.650;23.386;2023-07-31T02:46:05;6.33;;;6.13;;
7110;SDS011;3597;42.650;23.386;2023-07-31T02:48:31;6.47;;;6.17;;
7110;SDS011;3597;42.650;23.386;2023-07-31T02:50:56;6.60;;;6.20;;
7110;SDS011;3597;42.650;23.386;2023-07-31T02:53:21;6.07;;;5.83;;
7110;SDS011;3597;42.650;23.386;2023-07-31T02:55:48;5.93;;;5.63;;
7110;SDS011;3597;42.650;23.386;2023-07-31T02:58:13;6.40;;;6.17;;
7110;SDS011;3597;42.650;23.386;2023-07-31T03:00:42;5.97;;;5.77;;
7110;SDS011;3597;42.650;23.386;2023-07-31T03:03:08;6.53;;;6.23;;
7110;SDS011;3597;42.650;23.386;2023-07-31T03:05:33;6.00;;;5.70;;
7110;SDS011;3597;42.650;23.386;2023-07-31T03:07:58;7.00;;;6.70;;
7110;SDS011;3597;42.650;23.386;2023-07-31T03:10:23;6.20;;;5.90;;
7110;SDS011;3597;42.650;23.386;2023-07-31T03:12:49;6.33;;;6.03;;
7110;SDS011;3597;42.650;23.386;2023-07-31T03:15:15;6.00;;;5.70;;
7110;SDS011;3597;42.650;23.386;2023-07-31T03:17:40;5.73;;;5.53;;
7110;SDS011;3597;42.650;23.386;2023-07-31T03:20:06;5.57;;;5.37;;
7110;SDS011;3597;42.650;23.386;2023-07-31T03:22:31;6.00;;;5.80;;
7110;SDS011;3597;42.650;23.386;2023-07-31T03:24:57;6.60;;;6.30;;
7110;SDS011;3597;42.650;23.386;2023-07-31T03:27:22;5.53;;;5.33;;
7110;SDS011;3597;42.650;23.386;2023-07-31T03:29:47;6.10;;;5.80;;
7110;SDS011;3597;42.650;23.386;2023-07-31T03:32:14;6.53;;;6.23;;
7110;SDS011;3597;42.650;23.386;2023-07-31T03:34:40;6.00;;;5.70;;
7110;SDS011;3597;42.650;23.386;2023-07-31T03:37:05;6.40;;;6.20;;
7110;SDS011;3597;42.650;23.386;2023-07-31T03:39:31;5.77;;;5.47;;
7110;SDS011;3597;42.650;23.386;2023-07-31T03:41:56;6.00;;;5.80;;
7110;SDS011;3597;42.650;23.386;2023-07-31T03:44:21;6.17;;;5.90;;
7110;SDS011;3597;42.650;23.386;2023-07-31T03:46:47;6.40;;;6.10;;
7110;SDS011;3597;42.650;23.386;2023-07-31T03:49:12;6.13;;;5.93;;
7110;SDS011;3597;42.650;23.386;2023-07-31T03:51:37;6.73;;;6.43;;
7110;SDS011;3597;42.650;23.386;2023-07-31T03:54:03;5.97;;;5.77;;
7110;SDS011;3597;42.650;23.386;2023-07-31T03:56:28;6.57;;;6.27;;
7110;SDS011;3597;42.650;23.386;2023-07-31T03:58:54;6.77;;;6.47;;
7110;SDS011;3597;42.650;23.386;2023-07-31T04:01:19;7.07;;;6.70;;
7110;SDS011;3597;42.650;23.386;2023-07-31T04:03:45;6.80;;;6.50;;
7110;SDS011;3597;42.650;23.386;2023-07-31T04:06:10;6.97;;;6.67;;
7110;SDS011;3597;42.650;23.386;2023-07-31T04:08:35;7.17;;;6.77;;
7110;SDS011;3597;42.650;23.386;2023-07-31T04:11:01;6.67;;;6.37;;
7110;SDS011;3597;42.650;23.386;2023-07-31T04:13:26;7.60;;;7.10;;
7110;SDS011;3597;42.650;23.386;2023-07-31T04:15:52;7.10;;;6.70;;
7110;SDS011;3597;42.650;23.386;2023-07-31T04:18:19;6.23;;;5.93;;
7110;SDS011;3597;42.650;23.386;2023-07-31T04:20:44;7.47;;;6.93;;
7110;SDS011;3597;42.650;23.386;2023-07-31T04:23:10;6.70;;;6.40;;
7110;SDS011;3597;42.650;23.386;2023-07-31T04:25:35;7.30;;;7.00;;
7110;SDS011;3597;42.650;23.386;2023-07-31T04:28:01;8.63;;;8.03;;
7110;SDS011;3597;42.650;23.386;2023-07-31T04:30:26;7.93;;;7.57;;
7110;SDS011;3597;42.650;23.386;2023-07-31T04:32:51;7.47;;;7.17;;
7110;SDS011;3597;42.650;23.386;2023-07-31T04:35:17;8.00;;;7.57;;
7110;SDS011;3597;42.650;23.386;2023-07-31T04:37:42;8.63;;;8.23;;
7110;SDS011;3597;42.650;23.386;2023-07-31T04:40:07;8.83;;;8.43;;
7110;SDS011;3597;42.650;23.386;2023-07-31T04:42:33;8.70;;;8.27;;
7110;SDS011;3597;42.650;23.386;2023-07-31T04:44:59;8.83;;;8.43;;
7110;SDS011;3597;42.650;23.386;2023-07-31T04:47:25;8.67;;;8.33;;
7110;SDS011;3597;42.650;23.386;2023-07-31T04:49:50;10.23;;;9.83;;
7110;SDS011;3597;42.650;23.386;2023-07-31T04:52:15;9.37;;;8.97;;
7110;SDS011;3597;42.650;23.386;2023-07-31T04:54:41;9.17;;;8.77;;
7110;SDS011;3597;42.650;23.386;2023-07-31T04:57:06;8.70;;;8.30;;
7110;SDS011;3597;42.650;23.386;2023-07-31T04:59:31;8.73;;;8.30;;
7110;SDS011;3597;42.650;23.386;2023-07-31T05:01:57;8.67;;;8.27;;
7110;SDS011;3597;42.650;23.386;2023-07-31T05:04:22;7.57;;;7.23;;
7110;SDS011;3597;42.650;23.386;2023-07-31T05:06:47;6.90;;;6.60;;
7110;SDS011;3597;42.650;23.386;2023-07-31T05:09:13;5.50;;;5.20;;
7110;SDS011;3597;42.650;23.386;2023-07-31T05:11:38;5.50;;;5.20;;
7110;SDS011;3597;42.650;23.386;2023-07-31T05:14:05;5.80;;;5.50;;
7110;SDS011;3597;42.650;23.386;2023-07-31T05:16:31;5.57;;;5.37;;
7110;SDS011;3597;42.650;23.386;2023-07-31T05:18:56;5.13;;;4.93;;
7110;SDS011;3597;42.650;23.386;2023-07-31T05:21:21;5.70;;;5.40;;
7110;SDS011;3597;42.650;23.386;2023-07-31T05:23:47;6.73;;;6.33;;
7110;SDS011;3597;42.650;23.386;2023-07-31T05:26:13;6.30;;;5.90;;
7110;SDS011;3597;42.650;23.386;2023-07-31T05:28:38;4.83;;;4.73;;
7110;SDS011;3597;42.650;23.386;2023-07-31T05:31:04;5.30;;;5.10;;
7110;SDS011;3597;42.650;23.386;2023-07-31T05:33:30;4.93;;;4.83;;
7110;SDS011;3597;42.650;23.386;2023-07-31T05:35:56;4.37;;;4.27;;
7110;SDS011;3597;42.650;23.386;2023-07-31T05:38:21;5.00;;;4.67;;
7110;SDS011;3597;42.650;23.386;2023-07-31T05:40:46;5.17;;;4.87;;
7110;SDS011;3597;42.650;23.386;2023-07-31T05:43:12;4.80;;;4.60;;
7110;SDS011;3597;42.650;23.386;2023-07-31T05:45:38;4.30;;;4.20;;
7110;SDS011;3597;42.650;23.386;2023-07-31T05:48:03;3.57;;;3.47;;
7110;SDS011;3597;42.650;23.386;2023-07-31T05:50:29;3.30;;;3.30;;
7110;SDS011;3597;42.650;23.386;2023-07-31T05:52:55;3.40;;;3.30;;
7110;SDS011;3597;42.650;23.386;2023-07-31T05:55:20;3.50;;;3.40;;
7110;SDS011;3597;42.650;23.386;2023-07-31T05:57:46;4.20;;;4.10;;
7110;SDS011;3597;42.650;23.386;2023-07-31T06:00:12;3.10;;;3.10;;
7110;SDS011;3597;42.650;23.386;2023-07-31T06:02:38;3.17;;;3.17;;
7110;SDS011;3597;42.650;23.386;2023-07-31T06:05:04;2.80;;;2.80;;
7110;SDS011;3597;42.650;23.386;2023-07-31T06:07:30;2.40;;;2.40;;
7110;SDS011;3597;42.650;23.386;2023-07-31T06:09:59;2.60;;;2.60;;
7110;SDS011;3597;42.650;23.386;2023-07-31T06:12:29;2.93;;;2.93;;
7110;SDS011;3597;42.650;23.386;2023-07-31T06:14:55;2.97;;;2.97;;
7110;SDS011;3597;42.650;23.386;2023-07-31T06:17:20;2.87;;;2.83;;
7110;SDS011;3597;42.650;23.386;2023-07-31T06:19:46;2.70;;;2.60;;
7110;SDS011;3597;42.650;23.386;2023-07-31T06:22:11;2.73;;;2.73;;
7110;SDS011;3597;42.650;23.386;2023-07-31T06:24:37;2.50;;;2.50;;
7110;SDS011;3597;42.650;23.386;2023-07-31T06:27:02;1.90;;;1.90;;
7110;SDS011;3597;42.650;23.386;2023-07-31T06:29:29;2.20;;;2.20;;
7110;SDS011;3597;42.650;23.386;2023-07-31T06:31:54;2.20;;;2.00;;
7110;SDS011;3597;42.650;23.386;2023-07-31T06:34:20;1.95;;;1.95;;
7110;SDS011;3597;42.650;23.386;2023-07-31T06:36:45;2.05;;;1.83;;
7110;SDS011;3597;42.650;23.386;2023-07-31T06:39:10;1.92;;;1.92;;
7110;SDS011;3597;42.650;23.386;2023-07-31T06:41:35;2.90;;;2.80;;
7110;SDS011;3597;42.650;23.386;2023-07-31T06:44:01;2.55;;;2.55;;
7110;SDS011;3597;42.650;23.386;2023-07-31T06:46:26;2.80;;;2.80;;
7110;SDS011;3597;42.650;23.386;2023-07-31T06:48:51;3.13;;;2.75;;
7110;SDS011;3597;42.650;23.386;2023-07-31T06:51:17;2.45;;;2.45;;
7110;SDS011;3597;42.650;23.386;2023-07-31T06:53:42;2.45;;;2.45;;
7110;SDS011;3597;42.650;23.386;2023-07-31T06:56:10;2.63;;;2.55;;
7110;SDS011;3597;42.650;23.386;2023-07-31T06:58:35;2.50;;;2.50;;
7110;SDS011;3597;42.650;23.386;2023-07-31T07:01:00;2.20;;;2.20;;
7110;SDS011;3597;42.650;23.386;2023-07-31T07:03:27;2.72;;;2.63;;
7110;SDS011;3597;42.650;23.386;2023-07-31T07:05:52;2.58;;;2.45;;
7110;SDS011;3597;42.650;23.386;2023-07-31T07:08:17;2.33;;;2.28;;
7110;SDS011;3597;42.650;23.386;2023-07-31T07:10:43;1.98;;;1.98;;
7110;SDS011;3597;42.650;23.386;2023-07-31T07:13:08;1.90;;;1.90;;
7110;SDS011;3597;42.650;23.386;2023-07-31T07:15:34;1.80;;;1.80;;
7110;SDS011;3597;42.650;23.386;2023-07-31T07:17:59;2.10;;;2.10;;
7110;SDS011;3597;42.650;23.386;2023-07-31T07:20:25;1.90;;;1.90;;
7110;SDS011;3597;42.650;23.386;2023-07-31T07:22:50;1.80;;;1.80;;
7110;SDS011;3597;42.650;23.386;2023-07-31T07:25:16;1.58;;;1.58;;
7110;SDS011;3597;42.650;23.386;2023-07-31T07:27:41;1.55;;;1.55;;
7110;SDS011;3597;42.650;23.386;2023-07-31T07:30:06;1.50;;;1.50;;
7110;SDS011;3597;42.650;23.386;2023-07-31T07:32:32;1.70;;;1.70;;
7110;SDS011;3597;42.650;23.386;2023-07-31T07:34:57;1.70;;;1.70;;
7110;SDS011;3597;42.650;23.386;2023-07-31T07:37:23;1.80;;;1.80;;
7110;SDS011;3597;42.650;23.386;2023-07-31T07:39:48;1.75;;;1.75;;
7110;SDS011;3597;42.650;23.386;2023-07-31T07:42:13;1.50;;;1.50;;
7110;SDS011;3597;42.650;23.386;2023-07-31T07:44:39;1.58;;;1.58;;
7110;SDS011;3597;42.650;23.386;2023-07-31T07:47:04;1.67;;;1.67;;
7110;SDS011;3597;42.650;23.386;2023-07-31T07:49:32;1.40;;;1.40;;
7110;SDS011;3597;42.650;23.386;2023-07-31T07:51:59;2.83;;;1.77;;
7110;SDS011;3597;42.650;23.386;2023-07-31T07:54:24;1.63;;;1.63;;
7110;SDS011;3597;42.650;23.386;2023-07-31T07:56:49;2.00;;;1.90;;
7110;SDS011;3597;42.650;23.386;2023-07-31T07:59:15;1.95;;;1.95;;
7110;SDS011;3597;42.650;23.386;2023-07-31T08:01:40;1.90;;;1.90;;
7110;SDS011;3597;42.650;23.386;2023-07-31T08:04:05;1.70;;;1.70;;
7110;SDS011;3597;42.650;23.386;2023-07-31T08:06:31;2.13;;;2.13;;
7110;SDS011;3597;42.650;23.386;2023-07-31T08:08:56;2.25;;;2.25;;
7110;SDS011;3597;42.650;23.386;2023-07-31T08:11:22;1.60;;;1.60;;
7110;SDS011;3597;42.650;23.386;2023-07-31T08:13:48;1.67;;;1.67;;
7110;SDS011;3597;42.650;23.386;2023-07-31T08:16:14;1.70;;;1.70;;
7110;SDS011;3597;42.650;23.386;2023-07-31T08:18:39;1.58;;;1.58;;
7110;SDS011;3597;42.650;23.386;2023-07-31T08:21:05;1.90;;;1.80;;
7110;SDS011;3597;42.650;23.386;2023-07-31T08:23:30;1.73;;;1.73;;
7110;SDS011;3597;42.650;23.386;2023-07-31T08:25:56;1.63;;;1.63;;
7110;SDS011;3597;42.650;23.386;2023-07-31T08:28:21;1.80;;;1.80;;
7110;SDS011;3597;42.650;23.386;2023-07-31T08:30:47;1.75;;;1.75;;
7110;SDS011;3597;42.650;23.386;2023-07-31T08:33:12;1.80;;;1.80;;
7110;SDS011;3597;42.650;23.386;2023-07-31T08:35:37;1.70;;;1.70;;
7110;SDS011;3597;42.650;23.386;2023-07-31T08:38:03;1.65;;;1.65;;
7110;SDS011;3597;42.650;23.386;2023-07-31T08:40:28;1.70;;;1.70;;
7110;SDS011;3597;42.650;23.386;2023-07-31T08:42:54;1.70;;;1.70;;
7110;SDS011;3597;42.650;23.386;2023-07-31T08:45:22;1.75;;;1.75;;
7110;SDS011;3597;42.650;23.386;2023-07-31T08:47:48;1.52;;;1.52;;
7110;SDS011;3597;42.650;23.386;2023-07-31T08:50:19;1.63;;;1.63;;
7110;SDS011;3597;42.650;23.386;2023-07-31T08:52:46;1.80;;;1.70;;
7110;SDS011;3597;42.650;23.386;2023-07-31T08:55:12;1.75;;;1.75;;
7110;SDS011;3597;42.650;23.386;2023-07-31T08:57:38;1.48;;;1.48;;
7110;SDS011;3597;42.650;23.386;2023-07-31T09:00:05;2.03;;;2.03;;
7110;SDS011;3597;42.650;23.386;2023-07-31T09:02:37;1.60;;;1.60;;
7110;SDS011;3597;42.650;23.386;2023-07-31T09:05:05;1.67;;;1.67;;
7110;SDS011;3597;42.650;23.386;2023-07-31T09:07:31;1.50;;;1.50;;
7110;SDS011;3597;42.650;23.386;2023-07-31T09:09:59;1.70;;;1.70;;
7110;SDS011;3597;42.650;23.386;2023-07-31T09:12:25;1.60;;;1.50;;
7110;SDS011;3597;42.650;23.386;2023-07-31T09:14:50;1.88;;;1.77;;
7110;SDS011;3597;42.650;23.386;2023-07-31T09:17:16;1.73;;;1.70;;
7110;SDS011;3597;42.650;23.386;2023-07-31T09:19:53;1.48;;;1.48;;
7110;SDS011;3597;42.650;23.386;2023-07-31T09:22:25;1.60;;;1.60;;
7110;SDS011;3597;42.650;23.386;2023-07-31T09:24:56;1.50;;;1.50;;
7110;SDS011;3597;42.650;23.386;2023-07-31T09:27:42;1.48;;;1.48;;
7110;SDS011;3597;42.650;23.386;2023-07-31T09:30:15;1.58;;;1.58;;
7110;SDS011;3597;42.650;23.386;2023-07-31T09:32:42;1.55;;;1.55;;
7110;SDS011;3597;42.650;23.386;2023-07-31T09:35:50;1.60;;;1.60;;
7110;SDS011;3597;42.650;23.386;2023-07-31T09:38:03;1.48;;;1.48;;
7110;SDS011;3597;42.650;23.386;2023-07-31T09:40:31;1.70;;;1.70;;
7110;SDS011;3597;42.650;23.386;2023-07-31T09:42:58;1.60;;;1.50;;
7110;SDS011;3597;42.650;23.386;2023-07-31T09:45:24;1.50;;;1.50;;
7110;SDS011;3597;42.650;23.386;2023-07-31T09:47:50;1.50;;;1.50;;
7110;SDS011;3597;42.650;23.386;2023-07-31T09:50:16;1.58;;;1.58;;
7110;SDS011;3597;42.650;23.386;2023-07-31T09:52:42;2.17;;;2.08;;
7110;SDS011;3597;42.650;23.386;2023-07-31T09:55:08;1.50;;;1.50;;
7110;SDS011;3597;42.650;23.386;2023-07-31T09:57:34;1.77;;;1.77;;
7110;SDS011;3597;42.650;23.386;2023-07-31T10:00:08;1.40;;;1.40;;
7110;SDS011;3597;42.650;23.386;2023-07-31T10:02:37;1.80;;;1.75;;
7110;SDS011;3597;42.650;23.386;2023-07-31T10:05:03;1.58;;;1.58;;
7110;SDS011;3597;42.650;23.386;2023-07-31T10:07:30;1.70;;;1.60;;
7110;SDS011;3597;42.650;23.386;2023-07-31T10:09:59;1.60;;;1.50;;
7110;SDS011;3597;42.650;23.386;2023-07-31T10:12:25;1.40;;;1.40;;
7110;SDS011;3597;42.650;23.386;2023-07-31T10:14:54;1.60;;;1.60;;
7110;SDS011;3597;42.650;23.386;2023-07-31T10:17:21;1.50;;;1.50;;
7110;SDS011;3597;42.650;23.386;2023-07-31T10:19:46;1.50;;;1.50;;
7110;SDS011;3597;42.650;23.386;2023-07-31T10:22:13;1.20;;;1.20;;
7110;SDS011;3597;42.650;23.386;2023-07-31T10:24:38;1.50;;;1.50;;
7110;SDS011;3597;42.650;23.386;2023-07-31T10:27:04;1.13;;;1.13;;
7110;SDS011;3597;42.650;23.386;2023-07-31T10:29:30;1.50;;;1.50;;
7110;SDS011;3597;42.650;23.386;2023-07-31T10:31:56;1.35;;;1.35;;
7110;SDS011;3597;42.650;23.386;2023-07-31T10:34:22;1.40;;;1.40;;
7110;SDS011;3597;42.650;23.386;2023-07-31T10:36:48;1.58;;;1.58;;
7110;SDS011;3597;42.650;23.386;2023-07-31T10:41:58;1.30;;;1.30;;
7110;SDS011;3597;42.650;23.386;2023-07-31T10:44:24;1.15;;;1.15;;
7110;SDS011;3597;42.650;23.386;2023-07-31T10:46:49;1.20;;;1.20;;
7110;SDS011;3597;42.650;23.386;2023-07-31T10:49:20;1.50;;;1.50;;
7110;SDS011;3597;42.650;23.386;2023-07-31T10:51:46;1.20;;;1.20;;
7110;SDS011;3597;42.650;23.386;2023-07-31T10:54:13;1.20;;;1.20;;
7110;SDS011;3597;42.650;23.386;2023-07-31T10:56:45;1.35;;;1.20;;
7110;SDS011;3597;42.650;23.386;2023-07-31T10:59:11;1.42;;;1.42;;
7110;SDS011;3597;42.650;23.386;2023-07-31T11:01:50;1.27;;;1.27;;
7110;SDS011;3597;42.650;23.386;2023-07-31T11:04:21;1.10;;;1.10;;
7110;SDS011;3597;42.650;23.386;2023-07-31T11:06:57;1.10;;;1.10;;
7110;SDS011;3597;42.650;23.386;2023-07-31T11:09:24;1.40;;;1.40;;
7110;SDS011;3597;42.650;23.386;2023-07-31T11:11:53;1.20;;;1.20;;
7110;SDS011;3597;42.650;23.386;2023-07-31T11:14:19;1.58;;;1.42;;
7110;SDS011;3597;42.650;23.386;2023-07-31T11:16:44;1.30;;;1.30;;
7110;SDS011;3597;42.650;23.386;2023-07-31T11:19:09;1.30;;;1.30;;
7110;SDS011;3597;42.650;23.386;2023-07-31T11:21:35;1.10;;;1.10;;
7110;SDS011;3597;42.650;23.386;2023-07-31T11:24:00;1.50;;;1.40;;
7110;SDS011;3597;42.650;23.386;2023-07-31T11:26:25;1.30;;;1.30;;
7110;SDS011;3597;42.650;23.386;2023-07-31T11:28:51;1.27;;;1.27;;
7110;SDS011;3597;42.650;23.386;2023-07-31T11:31:19;1.27;;;1.27;;
7110;SDS011;3597;42.650;23.386;2023-07-31T11:33:45;1.20;;;1.20;;
7110;SDS011;3597;42.650;23.386;2023-07-31T11:36:17;3.63;;;2.17;;
7110;SDS011;3597;42.650;23.386;2023-07-31T11:38:43;1.20;;;1.20;;
7110;SDS011;3597;42.650;23.386;2023-07-31T11:41:09;1.27;;;1.27;;
7110;SDS011;3597;42.650;23.386;2023-07-31T11:43:34;1.40;;;1.40;;
7110;SDS011;3597;42.650;23.386;2023-07-31T11:46:01;1.40;;;1.40;;
7110;SDS011;3597;42.650;23.386;2023-07-31T11:48:34;1.25;;;1.25;;
7110;SDS011;3597;42.650;23.386;2023-07-31T11:53:31;1.20;;;1.20;;
7110;SDS011;3597;42.650;23.386;2023-07-31T11:56:00;1.27;;;1.27;;
7110;SDS011;3597;42.650;23.386;2023-07-31T11:58:27;1.40;;;1.40;;
7110;SDS011;3597;42.650;23.386;2023-07-31T12:00:54;1.40;;;1.40;;
7110;SDS011;3597;42.650;23.386;2023-07-31T12:03:19;1.10;;;1.10;;
7110;SDS011;3597;42.650;23.386;2023-07-31T12:05:46;1.15;;;1.15;;
7110;SDS011;3597;42.650;23.386;2023-07-31T12:08:12;1.30;;;1.30;;
7110;SDS011;3597;42.650;23.386;2023-07-31T12:10:38;1.40;;;1.40;;
7110;SDS011;3597;42.650;23.386;2023-07-31T12:13:07;1.10;;;1.10;;
7110;SDS011;3597;42.650;23.386;2023-07-31T12:15:42;1.10;;;1.10;;
7110;SDS011;3597;42.650;23.386;2023-07-31T12:18:10;1.30;;;1.30;;
7110;SDS011;3597;42.650;23.386;2023-07-31T12:20:49;1.52;;;1.52;;
7110;SDS011;3597;42.650;23.386;2023-07-31T12:28:46;1.70;;;1.70;;
7110;SDS011;3597;42.650;23.386;2023-07-31T12:31:14;1.40;;;1.40;;
7110;SDS011;3597;42.650;23.386;2023-07-31T12:33:43;1.65;;;1.65;;
7110;SDS011;3597;42.650;23.386;2023-07-31T12:36:09;1.45;;;1.45;;
7110;SDS011;3597;42.650;23.386;2023-07-31T12:38:37;1.70;;;1.70;;
7110;SDS011;3597;42.650;23.386;2023-07-31T12:41:02;1.77;;;1.77;;
7110;SDS011;3597;42.650;23.386;2023-07-31T12:43:28;1.85;;;1.85;;
7110;SDS011;3597;42.650;23.386;2023-07-31T12:45:54;2.10;;;2.10;;
7110;SDS011;3597;42.650;23.386;2023-07-31T12:48:21;2.13;;;2.13;;
7110;SDS011;3597;42.650;23.386;2023-07-31T12:50:46;3.60;;;2.20;;
7110;SDS011;3597;42.650;23.386;2023-07-31T12:53:12;1.77;;;1.77;;
7110;SDS011;3597;42.650;23.386;2023-07-31T12:55:37;2.42;;;2.42;;
7110;SDS011;3597;42.650;23.386;2023-07-31T12:58:02;1.90;;;1.90;;
7110;SDS011;3597;42.650;23.386;2023-07-31T13:00:28;1.70;;;1.70;;
7110;SDS011;3597;42.650;23.386;2023-07-31T13:02:53;1.77;;;1.77;;
7110;SDS011;3597;42.650;23.386;2023-07-31T13:05:19;2.00;;;2.00;;
7110;SDS011;3597;42.650;23.386;2023-07-31T13:07:45;1.92;;;1.92;;
7110;SDS011;3597;42.650;23.386;2023-07-31T13:10:11;1.90;;;1.90;;
7110;SDS011;3597;42.650;23.386;2023-07-31T13:12:37;2.20;;;2.20;;
7110;SDS011;3597;42.650;23.386;2023-07-31T13:15:03;1.95;;;1.95;;
7110;SDS011;3597;42.650;23.386;2023-07-31T13:17:29;2.10;;;2.10;;
7110;SDS011;3597;42.650;23.386;2023-07-31T13:19:55;2.47;;;2.38;;
7110;SDS011;3597;42.650;23.386;2023-07-31T13:22:20;2.22;;;2.22;;
7110;SDS011;3597;42.650;23.386;2023-07-31T13:24:45;2.13;;;2.13;;
7110;SDS011;3597;42.650;23.386;2023-07-31T13:27:11;1.90;;;1.90;;
7110;SDS011;3597;42.650;23.386;2023-07-31T13:29:36;2.05;;;2.05;;
7110;SDS011;3597;42.650;23.386;2023-07-31T13:32:01;2.60;;;2.45;;
7110;SDS011;3597;42.650;23.386;2023-07-31T13:34:27;1.83;;;1.83;;
7110;SDS011;3597;42.650;23.386;2023-07-31T13:36:53;2.10;;;2.10;;
7110;SDS011;3597;42.650;23.386;2023-07-31T13:39:19;2.20;;;2.20;;
7110;SDS011;3597;42.650;23.386;2023-07-31T13:41:44;1.83;;;1.83;;
7110;SDS011;3597;42.650;23.386;2023-07-31T13:44:10;2.38;;;2.28;;
7110;SDS011;3597;42.650;23.386;2023-07-31T13:46:35;2.00;;;2.00;;
7110;SDS011;3597;42.650;23.386;2023-07-31T13:49:00;1.77;;;1.77;;
7110;SDS011;3597;42.650;23.386;2023-07-31T13:51:26;2.05;;;2.05;;
7110;SDS011;3597;42.650;23.386;2023-07-31T13:53:52;2.05;;;2.05;;
7110;SDS011;3597;42.650;23.386;2023-07-31T13:56:18;1.90;;;1.90;;
7110;SDS011;3597;42.650;23.386;2023-07-31T13:58:43;1.90;;;1.90;;
7110;SDS011;3597;42.650;23.386;2023-07-31T14:01:09;2.00;;;2.00;;
7110;SDS011;3597;42.650;23.386;2023-07-31T14:03:34;1.95;;;1.95;;
7110;SDS011;3597;42.650;23.386;2023-07-31T14:05:59;1.90;;;1.90;;
7110;SDS011;3597;42.650;23.386;2023-07-31T14:08:25;1.80;;;1.80;;
7110;SDS011;3597;42.650;23.386;2023-07-31T14:10:50;1.80;;;1.70;;
7110;SDS011;3597;42.650;23.386;2023-07-31T14:13:16;1.60;;;1.60;;
7110;SDS011;3597;42.650;23.386;2023-07-31T14:15:41;1.85;;;1.85;;
7110;SDS011;3597;42.650;23.386;2023-07-31T14:18:07;2.17;;;2.17;;
7110;SDS011;3597;42.650;23.386;2023-07-31T14:20:32;1.77;;;1.77;;
7110;SDS011;3597;42.650;23.386;2023-07-31T14:22:58;1.80;;;1.80;;
7110;SDS011;3597;42.650;23.386;2023-07-31T14:25:24;1.60;;;1.60;;
7110;SDS011;3597;42.650;23.386;2023-07-31T14:27:49;1.90;;;1.90;;
7110;SDS011;3597;42.650;23.386;2023-07-31T14:30:15;1.90;;;1.90;;
7110;SDS011;3597;42.650;23.386;2023-07-31T14:32:41;2.00;;;1.90;;
7110;SDS011;3597;42.650;23.386;2023-07-31T14:35:06;1.83;;;1.83;;
7110;SDS011;3597;42.650;23.386;2023-07-31T14:37:42;2.03;;;2.03;;
7110;SDS011;3597;42.650;23.386;2023-07-31T14:40:08;1.88;;;1.88;;
7110;SDS011;3597;42.650;23.386;2023-07-31T14:42:35;1.70;;;1.70;;
7110;SDS011;3597;42.650;23.386;2023-07-31T14:45:01;1.73;;;1.73;;
7110;SDS011;3597;42.650;23.386;2023-07-31T14:47:27;2.00;;;1.90;;
7110;SDS011;3597;42.650;23.386;2023-07-31T14:49:52;2.00;;;2.00;;
7110;SDS011;3597;42.650;23.386;2023-07-31T14:52:18;1.58;;;1.58;;
7110;SDS011;3597;42.650;23.386;2023-07-31T14:54:43;1.70;;;1.70;;
7110;SDS011;3597;42.650;23.386;2023-07-31T14:57:09;1.70;;;1.70;;
7110;SDS011;3597;42.650;23.386;2023-07-31T14:59:34;1.67;;;1.60;;
7110;SDS011;3597;42.650;23.386;2023-07-31T15:01:59;1.55;;;1.55;;
7110;SDS011;3597;42.650;23.386;2023-07-31T15:04:25;2.28;;;1.80;;
7110;SDS011;3597;42.650;23.386;2023-07-31T15:06:51;1.65;;;1.65;;
7110;SDS011;3597;42.650;23.386;2023-07-31T15:09:17;1.65;;;1.65;;
7110;SDS011;3597;42.650;23.386;2023-07-31T15:11:42;1.88;;;1.80;;